This is the latest recevied weather packets stored in our database for station/object DL9LA-13. If no packets are shown the sender has not sent any weather packets the latest 10 day(s).
| Time | Temp. | Humidity | Pressure | Rain* | Wind** | Luminosity | Snow |
|---|---|---|---|---|---|---|---|
| 1777761221 | 13.89° C | 42% | 972 hPa | - | - | - | - |
| 1777760618 | 14.44° C | 40% | 972 hPa | - | - | - | - |
| 1777760014 | 15.56° C | 39% | 972 hPa | - | - | - | - |
| 1777759410 | 15.56° C | 37% | 972 hPa | - | - | - | - |
| 1777758807 | 16.11° C | 37% | 972 hPa | - | - | - | - |
| 1777758203 | 16.11° C | 37% | 972 hPa | - | - | - | - |
| 1777757599 | 16.67° C | 37% | 972 hPa | - | - | - | - |
| 1777756996 | 16.11° C | 37% | 972 hPa | - | - | - | - |
| 1777756392 | 16.11° C | 38% | 972 hPa | - | - | - | - |
| 1777755788 | 16.67° C | 37% | 973 hPa | - | - | - | - |
| 1777755185 | 17.22° C | 36% | 973 hPa | - | - | - | - |
| 1777754581 | 17.22° C | 36% | 973 hPa | - | - | - | - |
| 1777753978 | 17.22° C | 35% | 973 hPa | - | - | - | - |
| 1777753374 | 17.78° C | 36% | 973 hPa | - | - | - | - |
| 1777752770 | 17.78° C | 35% | 973 hPa | - | - | - | - |
| 1777752167 | 18.33° C | 35% | 973 hPa | - | - | - | - |
| 1777750959 | 18.33° C | 35% | 973 hPa | - | - | - | - |
| 1777749752 | 19.44° C | 35% | 973 hPa | - | - | - | - |
| 1777749148 | 20° C | 33% | 973 hPa | - | - | - | - |
| 1777746734 | 21.11° C | 30% | 972 hPa | - | - | - | - |
| 1777744923 | 22.78° C | 28% | 972 hPa | - | - | - | - |
| 1777744319 | 22.78° C | 28% | 972 hPa | - | - | - | - |
| 1777738283 | 26.11° C | 21% | 973 hPa | - | - | - | - |
| 1777729832 | 26.67° C | 23% | 974 hPa | - | - | - | - |
| 1777729229 | 26.11° C | 23% | 975 hPa | - | - | - | - |
* Rain since midnight (hover to see other rain measurements)
** Current wind speed in m/s (hover to see current wind gust speed)